Time;durP1;ratioP1;P1;durP2;ratioP2;P2;SDS_P1;SDS_P2;PMS_P1;PMS_P2;Temp;Humidity;BMP_temperature;BMP_pressure;BME280_temperature;BME280_humidity;BME280_pressure;Samples;Min_cycle;Max_cycle;Signal;HPM_P1;HPM_P2
2024/01/06 00:01:03;;;;;;;5.25;3.20;;;7.70;98.20;;;;;;5008196;28;20030;-81
2024/01/06 00:03:29;;;;;;;5.38;3.30;;;7.70;98.10;;;;;;5008120;28;20505;-82
2024/01/06 00:05:54;;;;;;;6.28;3.20;;;7.60;98.10;;;;;;5003561;28;20037;-80
2024/01/06 00:08:20;;;;;;;5.85;3.30;;;7.60;98.10;;;;;;5008510;28;20030;-82
2024/01/06 00:10:46;;;;;;;5.03;2.83;;;7.50;98.10;;;;;;5006691;28;20069;-82
2024/01/06 00:13:11;;;;;;;5.63;3.13;;;7.50;98.10;;;;;;5003507;28;20359;-81
2024/01/06 00:15:37;;;;;;;4.60;2.72;;;7.50;98.10;;;;;;5006308;28;20101;-80
2024/01/06 00:18:03;;;;;;;4.95;2.70;;;7.50;98.10;;;;;;5007284;28;20021;-80
2024/01/06 00:20:28;;;;;;;4.20;2.38;;;7.50;98.10;;;;;;5005629;28;20034;-80
2024/01/06 00:22:56;;;;;;;5.40;3.10;;;7.50;98.00;;;;;;5001017;28;20034;-80
2024/01/06 00:25:21;;;;;;;5.38;2.97;;;7.50;97.90;;;;;;5005221;28;20026;-83
2024/01/06 00:27:47;;;;;;;3.70;2.50;;;7.50;97.90;;;;;;5005201;28;20773;-82
2024/01/06 00:30:13;;;;;;;4.88;2.97;;;7.40;97.90;;;;;;5009969;28;20029;-82
2024/01/06 00:32:38;;;;;;;4.78;2.70;;;7.40;98.00;;;;;;5006080;28;20037;-80
2024/01/06 00:35:04;;;;;;;4.18;2.42;;;7.40;98.00;;;;;;5005074;28;20081;-80
2024/01/06 00:37:30;;;;;;;3.83;2.17;;;7.40;97.90;;;;;;5005087;28;20033;-80
2024/01/06 00:39:55;;;;;;;3.80;2.10;;;7.30;97.90;;;;;;5005568;28;20026;-80
2024/01/06 00:42:21;;;;;;;4.70;2.70;;;7.40;97.90;;;;;;5003578;28;20026;-82
2024/01/06 00:44:47;;;;;;;3.42;2.30;;;7.30;97.90;;;;;;5005667;28;20045;-82
2024/01/06 00:47:12;;;;;;;5.10;2.92;;;7.30;97.90;;;;;;5010057;28;20032;-82
2024/01/06 00:49:38;;;;;;;5.05;3.30;;;7.30;97.90;;;;;;5008317;28;20374;-81
2024/01/06 00:52:04;;;;;;;6.30;3.10;;;7.20;97.80;;;;;;5008575;28;20072;-82
2024/01/06 00:54:29;;;;;;;5.72;3.13;;;7.20;97.90;;;;;;5012564;28;20018;-82
2024/01/06 00:56:55;;;;;;;4.28;2.47;;;7.20;97.90;;;;;;5013884;28;20030;-83
2024/01/06 00:59:20;;;;;;;4.57;2.70;;;7.20;97.90;;;;;;5015646;28;20025;-81
2024/01/06 01:01:46;;;;;;;5.10;2.72;;;7.10;97.80;;;;;;5014946;28;20025;-82
2024/01/06 01:04:11;;;;;;;5.22;2.78;;;7.10;97.80;;;;;;5011306;28;20061;-81
2024/01/06 01:06:37;;;;;;;4.97;2.90;;;7.10;97.90;;;;;;5010781;28;20034;-81
2024/01/06 01:09:04;;;;;;;4.05;2.25;;;7.10;98.00;;;;;;5008832;28;20026;-81
2024/01/06 01:11:30;;;;;;;4.22;2.35;;;7.20;98.00;;;;;;5008030;28;20382;-79
2024/01/06 01:13:55;;;;;;;3.80;2.20;;;7.10;97.90;;;;;;5005610;28;20033;-81
2024/01/06 01:16:21;;;;;;;4.38;2.50;;;7.10;97.90;;;;;;5011567;28;20022;-80
2024/01/06 01:18:47;;;;;;;4.78;2.75;;;7.10;97.90;;;;;;5007730;28;20024;-81
2024/01/06 01:21:12;;;;;;;4.97;2.75;;;7.10;97.90;;;;;;5012041;28;20026;-81
2024/01/06 01:23:38;;;;;;;5.15;2.95;;;7.10;97.80;;;;;;5011104;28;20033;-79
2024/01/06 01:26:03;;;;;;;4.82;3.10;;;7.10;97.80;;;;;;5010583;28;20084;-81
2024/01/06 01:28:29;;;;;;;4.35;2.58;;;7.00;97.80;;;;;;5010069;28;20026;-80
2024/01/06 01:30:54;;;;;;;4.10;2.35;;;7.00;97.80;;;;;;5004727;28;20022;-80
2024/01/06 01:33:20;;;;;;;4.68;2.70;;;7.10;97.80;;;;;;5011285;28;20033;-79
2024/01/06 01:35:45;;;;;;;5.10;2.80;;;7.10;97.80;;;;;;5009041;28;20083;-81
2024/01/06 01:38:11;;;;;;;4.78;2.67;;;7.10;97.60;;;;;;5010523;28;20045;-81
2024/01/06 01:40:36;;;;;;;3.72;2.40;;;7.10;97.60;;;;;;5009997;28;20045;-81
2024/01/06 01:43:02;;;;;;;4.47;2.40;;;7.10;97.70;;;;;;5008464;28;20037;-81
2024/01/06 01:45:28;;;;;;;3.53;2.20;;;7.10;97.60;;;;;;5009279;28;20095;-79
2024/01/06 01:47:53;;;;;;;5.07;2.83;;;7.10;97.60;;;;;;5004031;28;20044;-80
2024/01/06 01:50:20;;;;;;;3.85;2.45;;;7.00;97.60;;;;;;5007014;28;20485;-81
2024/01/06 01:52:46;;;;;;;4.03;2.50;;;7.00;97.50;;;;;;5007358;28;20030;-80
2024/01/06 01:55:11;;;;;;;4.00;2.25;;;7.00;97.60;;;;;;5007672;28;20342;-79
2024/01/06 01:57:38;;;;;;;4.47;2.83;;;7.10;97.60;;;;;;5006401;28;20030;-79
2024/01/06 02:00:04;;;;;;;4.22;2.38;;;7.10;97.50;;;;;;5008045;28;20358;-79
2024/01/06 02:02:29;;;;;;;3.58;2.30;;;7.10;97.50;;;;;;5002985;28;20079;-78
2024/01/06 02:04:56;;;;;;;5.10;2.88;;;7.00;97.50;;;;;;5006555;28;20022;-80
2024/01/06 02:07:21;;;;;;;5.20;3.03;;;7.00;97.40;;;;;;5007073;28;20461;-77
2024/01/06 02:09:47;;;;;;;4.65;2.70;;;6.90;97.40;;;;;;5007142;28;20036;-80
2024/01/06 02:12:12;;;;;;;5.35;2.80;;;6.90;97.50;;;;;;5008925;28;20029;-79
2024/01/06 02:14:38;;;;;;;5.82;3.42;;;6.80;97.60;;;;;;5005997;28;20493;-81
2024/01/06 02:17:03;;;;;;;5.32;3.03;;;6.80;97.60;;;;;;5007639;28;20054;-80
2024/01/06 02:19:29;;;;;;;5.47;2.88;;;6.80;97.70;;;;;;5007971;28;20485;-79
2024/01/06 02:21:55;;;;;;;6.20;3.17;;;6.70;97.70;;;;;;5009138;28;20044;-79
2024/01/06 02:24:21;;;;;;;6.07;3.30;;;6.70;97.70;;;;;;5010102;28;20108;-79
2024/01/06 02:26:47;;;;;;;7.18;3.85;;;6.70;97.80;;;;;;5005011;28;20030;-82
2024/01/06 02:29:12;;;;;;;7.00;3.80;;;6.60;97.80;;;;;;5011420;28;20045;-80
2024/01/06 02:31:38;;;;;;;6.57;3.90;;;6.60;97.80;;;;;;5012634;28;20032;-79
2024/01/06 02:34:04;;;;;;;5.55;3.22;;;6.60;97.90;;;;;;5011552;28;20082;-82
2024/01/06 02:36:29;;;;;;;4.97;2.97;;;6.60;97.90;;;;;;5013072;28;20084;-81
2024/01/06 02:38:55;;;;;;;7.35;3.70;;;6.50;97.80;;;;;;5014415;28;20025;-82
2024/01/06 02:41:20;;;;;;;8.30;4.22;;;6.50;97.80;;;;;;5004183;28;20511;-80
2024/01/06 02:43:46;;;;;;;8.25;4.20;;;6.50;97.80;;;;;;5012894;28;20499;-82
2024/01/06 02:46:12;;;;;;;7.78;4.00;;;6.50;97.80;;;;;;5011191;28;20037;-78
2024/01/06 02:48:38;;;;;;;7.80;4.03;;;6.40;97.80;;;;;;5012621;28;20761;-81
2024/01/06 02:51:03;;;;;;;7.35;4.20;;;6.40;97.80;;;;;;5011517;28;20075;-80
2024/01/06 02:53:29;;;;;;;8.85;4.72;;;6.40;97.80;;;;;;5010476;28;20041;-80
2024/01/06 02:55:54;;;;;;;9.05;4.85;;;6.30;97.80;;;;;;5011107;28;20014;-82
2024/01/06 02:58:20;;;;;;;7.78;3.90;;;6.30;97.80;;;;;;5007725;28;20092;-80
2024/01/06 03:00:46;;;;;;;7.68;4.22;;;6.30;97.80;;;;;;5011756;28;20037;-80
2024/01/06 03:03:11;;;;;;;6.50;3.58;;;6.30;97.90;;;;;;5011669;28;20033;-80
2024/01/06 03:05:37;;;;;;;6.20;3.70;;;6.30;97.80;;;;;;5011746;28;20392;-80
2024/01/06 03:08:03;;;;;;;7.35;3.90;;;6.30;97.80;;;;;;5013553;28;20040;-79
2024/01/06 03:10:29;;;;;;;6.05;3.60;;;6.40;97.80;;;;;;5012426;28;20037;-81
2024/01/06 03:12:55;;;;;;;7.40;3.90;;;6.30;97.80;;;;;;5012608;28;20038;-78
2024/01/06 03:15:20;;;;;;;7.90;4.00;;;6.30;97.70;;;;;;5010796;28;20025;-79
2024/01/06 03:17:46;;;;;;;5.68;3.15;;;6.30;97.70;;;;;;5013936;28;20018;-81
2024/01/06 03:20:11;;;;;;;7.18;3.78;;;6.40;97.70;;;;;;5012294;28;20494;-79
2024/01/06 03:22:38;;;;;;;6.38;3.60;;;6.30;97.70;;;;;;5012715;28;20084;-81
2024/01/06 03:25:04;;;;;;;8.48;4.47;;;6.30;97.70;;;;;;5010072;28;20347;-79
2024/01/06 03:27:29;;;;;;;8.18;4.32;;;6.30;97.60;;;;;;5012803;28;20022;-81
2024/01/06 03:29:55;;;;;;;7.47;4.00;;;6.30;97.80;;;;;;5011754;28;20018;-81
2024/01/06 03:32:21;;;;;;;6.85;3.88;;;6.30;97.70;;;;;;5007608;28;20026;-80
2024/01/06 03:34:47;;;;;;;7.80;4.20;;;6.30;97.70;;;;;;5012414;28;20075;-80
2024/01/06 03:37:12;;;;;;;7.43;4.05;;;6.30;97.70;;;;;;5010917;28;20045;-81
2024/01/06 03:39:38;;;;;;;5.78;3.33;;;6.30;97.60;;;;;;5013662;28;20103;-82
2024/01/06 03:42:04;;;;;;;5.40;3.03;;;6.30;97.60;;;;;;5010387;28;20028;-79
2024/01/06 03:44:30;;;;;;;6.75;3.88;;;6.30;97.70;;;;;;5012611;28;20022;-82
2024/01/06 03:46:59;;;;;;;6.53;3.83;;;6.20;97.50;;;;;;5008458;28;20026;-80
2024/01/06 03:49:25;;;;;;;7.70;3.85;;;6.20;97.60;;;;;;5010718;28;20034;-80
2024/01/06 03:51:51;;;;;;;7.40;3.83;;;6.20;97.60;;;;;;5011037;28;20033;-83
2024/01/06 03:54:16;;;;;;;8.98;4.40;;;6.20;97.60;;;;;;5013392;28;20559;-81
2024/01/06 03:56:42;;;;;;;8.55;4.00;;;6.20;97.60;;;;;;5010496;28;20434;-82
2024/01/06 03:59:08;;;;;;;6.07;3.40;;;6.20;97.60;;;;;;5012180;28;20058;-82
2024/01/06 04:01:35;;;;;;;7.93;4.25;;;6.20;97.70;;;;;;5012135;28;20026;-81
2024/01/06 04:04:04;;;;;;;8.70;4.57;;;6.20;97.70;;;;;;5012775;28;20621;-80
2024/01/06 04:06:31;;;;;;;8.05;3.50;;;6.20;97.60;;;;;;5011617;28;20022;-82
2024/01/06 04:08:57;;;;;;;7.95;3.95;;;6.20;97.60;;;;;;5007185;28;20025;-83
2024/01/06 04:11:23;;;;;;;9.32;4.15;;;6.10;97.60;;;;;;5011069;28;20026;-82
2024/01/06 04:13:48;;;;;;;7.60;3.90;;;6.10;97.60;;;;;;5011357;28;20030;-81
2024/01/06 04:16:14;;;;;;;7.78;4.38;;;6.10;97.60;;;;;;5013506;28;20022;-82
2024/01/06 04:18:40;;;;;;;8.38;3.78;;;6.10;97.70;;;;;;5016935;28;20056;-80
2024/01/06 04:21:05;;;;;;;6.97;3.72;;;6.10;97.70;;;;;;5010187;28;20951;-82
2024/01/06 04:23:31;;;;;;;6.40;3.33;;;6.10;97.80;;;;;;5011318;28;20095;-79
2024/01/06 04:25:56;;;;;;;6.85;3.80;;;6.20;97.70;;;;;;5010549;28;20083;-82
2024/01/06 04:28:22;;;;;;;7.05;3.78;;;6.20;97.50;;;;;;5005320;28;20105;-82
2024/01/06 04:30:48;;;;;;;5.85;3.40;;;6.10;97.50;;;;;;5006368;28;20752;-82
2024/01/06 04:33:14;;;;;;;12.85;5.85;;;6.10;97.50;;;;;;5008999;28;20017;-80
2024/01/06 04:35:39;;;;;;;9.57;4.88;;;6.00;97.40;;;;;;5010516;28;20029;-81
2024/01/06 04:38:05;;;;;;;8.88;5.10;;;6.00;97.50;;;;;;5010247;28;20100;-80
2024/01/06 04:40:30;;;;;;;9.35;4.95;;;5.90;97.60;;;;;;5010016;28;20026;-80
2024/01/06 04:42:56;;;;;;;11.23;5.20;;;5.90;97.70;;;;;;5008363;28;20030;-81
2024/01/06 04:45:23;;;;;;;8.52;4.55;;;5.90;97.60;;;;;;5005305;28;20159;-81
2024/01/06 04:47:49;;;;;;;9.45;4.53;;;5.80;97.70;;;;;;5005210;28;20109;-82
2024/01/06 04:50:15;;;;;;;9.57;5.18;;;5.80;97.70;;;;;;5009394;28;20112;-80
2024/01/06 04:52:41;;;;;;;8.25;4.57;;;5.80;97.70;;;;;;5006642;28;20339;-81
2024/01/06 04:55:07;;;;;;;9.10;4.78;;;5.70;97.70;;;;;;5010044;28;20105;-81
2024/01/06 04:57:32;;;;;;;12.10;5.70;;;5.60;97.60;;;;;;5005830;28;20047;-81
2024/01/06 04:59:58;;;;;;;8.77;4.70;;;5.50;97.70;;;;;;5008928;28;20259;-81
2024/01/06 05:02:24;;;;;;;8.32;4.75;;;5.50;97.90;;;;;;5008743;28;20025;-78
2024/01/06 05:04:49;;;;;;;8.88;4.60;;;5.50;97.90;;;;;;5006613;28;20041;-80
2024/01/06 05:07:15;;;;;;;7.32;4.05;;;5.50;98.00;;;;;;5007309;28;20096;-79
2024/01/06 05:09:40;;;;;;;8.27;4.13;;;5.50;98.00;;;;;;5005694;28;20026;-79
2024/01/06 05:12:06;;;;;;;7.47;4.20;;;5.50;98.00;;;;;;5008838;28;20029;-80
2024/01/06 05:14:32;;;;;;;6.63;3.42;;;5.50;97.90;;;;;;5007191;28;20577;-80
2024/01/06 05:16:58;;;;;;;5.85;3.10;;;5.50;98.00;;;;;;5009071;28;20042;-80
2024/01/06 05:19:23;;;;;;;6.35;3.53;;;5.50;98.10;;;;;;5007519;28;20061;-78
2024/01/06 05:21:49;;;;;;;5.70;3.53;;;5.50;98.00;;;;;;5004126;28;20029;-80
2024/01/06 05:24:14;;;;;;;6.78;3.92;;;5.40;97.90;;;;;;5008490;28;20030;-79
2024/01/06 05:26:40;;;;;;;8.48;4.45;;;5.40;97.90;;;;;;5014991;28;20037;-80
2024/01/06 05:29:06;;;;;;;7.32;3.92;;;5.40;97.90;;;;;;5013647;28;20095;-80
2024/01/06 05:31:31;;;;;;;6.57;3.83;;;5.30;98.10;;;;;;5008676;28;20389;-78
2024/01/06 05:33:57;;;;;;;7.25;4.00;;;5.30;98.10;;;;;;5007917;28;20029;-81
2024/01/06 05:36:22;;;;;;;7.00;3.78;;;5.30;98.10;;;;;;5009676;28;20711;-80
2024/01/06 05:38:48;;;;;;;6.38;3.40;;;5.30;97.90;;;;;;5006836;28;20548;-81
2024/01/06 05:41:14;;;;;;;5.70;3.20;;;5.30;98.10;;;;;;5007878;28;20033;-80
2024/01/06 05:43:39;;;;;;;6.13;3.45;;;5.30;98.10;;;;;;5010565;28;20030;-82
2024/01/06 05:46:05;;;;;;;6.00;3.45;;;5.20;97.90;;;;;;5008268;28;20494;-80
2024/01/06 05:48:30;;;;;;;5.20;3.17;;;5.30;98.20;;;;;;5008881;28;20018;-80
2024/01/06 05:50:56;;;;;;;7.35;3.90;;;5.20;98.10;;;;;;5009543;28;20112;-81
2024/01/06 05:53:21;;;;;;;6.45;3.83;;;5.30;98.10;;;;;;5010297;28;20094;-79
2024/01/06 05:55:47;;;;;;;7.30;4.03;;;5.20;98.10;;;;;;5008089;28;20481;-78
2024/01/06 05:58:12;;;;;;;6.20;3.75;;;5.20;98.00;;;;;;5006307;28;20088;-80
2024/01/06 06:00:38;;;;;;;6.13;3.53;;;5.20;98.00;;;;;;5006534;28;20109;-80
2024/01/06 06:03:04;;;;;;;8.68;4.75;;;5.10;98.10;;;;;;5008313;28;20034;-79
2024/01/06 06:05:30;;;;;;;5.40;2.78;;;5.10;98.00;;;;;;5011159;28;20124;-78
2024/01/06 06:07:55;;;;;;;6.72;4.00;;;5.10;98.10;;;;;;5012179;28;20028;-81
2024/01/06 06:10:21;;;;;;;6.18;3.47;;;5.10;98.10;;;;;;5009208;28;20029;-78
2024/01/06 06:12:47;;;;;;;7.47;3.80;;;5.10;98.10;;;;;;5011886;28;20030;-80
2024/01/06 06:15:12;;;;;;;8.25;4.03;;;5.10;98.00;;;;;;5023157;28;20113;-79
2024/01/06 06:17:39;;;;;;;7.70;3.47;;;5.10;97.90;;;;;;5007306;28;20053;-79
2024/01/06 06:20:06;;;;;;;6.95;3.75;;;5.10;97.90;;;;;;5009671;28;20509;-81
2024/01/06 06:22:32;;;;;;;6.65;3.70;;;5.10;98.00;;;;;;5010550;28;20026;-81
2024/01/06 06:24:59;;;;;;;8.98;4.53;;;5.10;97.90;;;;;;5012692;28;20459;-80
2024/01/06 06:27:25;;;;;;;7.38;4.10;;;5.00;97.80;;;;;;5010715;28;20030;-81
2024/01/06 06:29:50;;;;;;;6.63;3.50;;;5.00;97.90;;;;;;5012009;28;20404;-79
2024/01/06 06:32:16;;;;;;;6.28;3.50;;;5.00;97.90;;;;;;5015298;28;20022;-82
2024/01/06 06:34:42;;;;;;;6.10;3.58;;;5.00;97.90;;;;;;5012870;28;20105;-80
2024/01/06 06:37:08;;;;;;;7.63;4.20;;;5.00;97.80;;;;;;5005810;28;20076;-83
2024/01/06 06:39:35;;;;;;;5.97;3.60;;;4.90;97.80;;;;;;5012305;28;20022;-82
2024/01/06 06:42:01;;;;;;;5.60;3.22;;;5.00;97.80;;;;;;5010951;28;20088;-82
2024/01/06 06:44:26;;;;;;;5.30;3.17;;;5.00;97.90;;;;;;5012435;28;20466;-79
2024/01/06 06:46:52;;;;;;;6.45;3.38;;;5.00;97.90;;;;;;5012541;28;20105;-82
2024/01/06 06:49:18;;;;;;;7.07;3.50;;;5.00;97.80;;;;;;5014831;28;20073;-82
2024/01/06 06:51:46;;;;;;;5.45;3.42;;;5.00;97.80;;;;;;5012281;28;20026;-81
2024/01/06 06:54:13;;;;;;;4.20;2.78;;;5.00;97.70;;;;;;5009339;28;20485;-81
2024/01/06 06:56:38;;;;;;;5.60;3.10;;;5.00;97.70;;;;;;5011738;28;20038;-83
2024/01/06 06:59:05;;;;;;;5.88;3.35;;;5.10;97.70;;;;;;5011492;28;20247;-81
2024/01/06 07:01:30;;;;;;;4.47;2.92;;;5.10;97.50;;;;;;5011550;28;20489;-82
2024/01/06 07:03:56;;;;;;;4.80;2.90;;;5.10;97.50;;;;;;5012879;28;20045;-81
2024/01/06 07:06:22;;;;;;;5.05;2.78;;;5.10;97.50;;;;;;5012831;28;20029;-82
2024/01/06 07:08:47;;;;;;;7.65;4.40;;;5.10;97.50;;;;;;5009937;28;20397;-81
2024/01/06 07:11:14;;;;;;;6.82;4.22;;;5.00;97.30;;;;;;5006462;28;20128;-78
2024/01/06 07:13:40;;;;;;;6.82;4.10;;;4.90;97.40;;;;;;5009847;28;20436;-79
2024/01/06 07:16:06;;;;;;;6.43;3.47;;;4.90;97.50;;;;;;5010859;28;20109;-78
2024/01/06 07:18:32;;;;;;;4.97;3.05;;;4.90;97.50;;;;;;5011709;28;20018;-81
2024/01/06 07:20:58;;;;;;;4.68;3.00;;;5.00;97.50;;;;;;5009026;28;20489;-80
2024/01/06 07:23:24;;;;;;;4.28;2.70;;;5.00;97.60;;;;;;5011802;28;20022;-79
2024/01/06 07:25:49;;;;;;;5.32;3.25;;;5.00;97.50;;;;;;5010648;28;20022;-78
2024/01/06 07:28:15;;;;;;;5.10;3.00;;;5.00;97.30;;;;;;5010991;28;20030;-81
2024/01/06 07:30:41;;;;;;;4.20;2.72;;;5.00;97.30;;;;;;5011308;28;20036;-78
2024/01/06 07:33:06;;;;;;;7.43;3.70;;;5.00;97.30;;;;;;5013577;28;20038;-80
2024/01/06 07:35:32;;;;;;;7.15;3.90;;;4.90;97.20;;;;;;5014632;28;20029;-81
2024/01/06 07:37:57;;;;;;;5.75;3.50;;;4.90;97.30;;;;;;5010948;28;20033;-79
2024/01/06 07:40:25;;;;;;;6.32;3.65;;;4.90;97.40;;;;;;5012737;28;20257;-81
2024/01/06 07:42:51;;;;;;;5.35;3.10;;;4.90;97.30;;;;;;5011890;28;20034;-80
2024/01/06 07:45:17;;;;;;;4.50;3.00;;;4.90;97.30;;;;;;5013176;28;20073;-80
2024/01/06 07:47:42;;;;;;;4.95;2.95;;;4.90;97.30;;;;;;5007937;28;20489;-79
2024/01/06 07:50:09;;;;;;;4.95;3.00;;;4.80;97.30;;;;;;5010278;28;20456;-80
2024/01/06 07:52:34;;;;;;;6.00;2.95;;;4.80;97.30;;;;;;5012317;28;20036;-81
2024/01/06 07:55:00;;;;;;;5.13;2.80;;;4.80;97.30;;;;;;5012559;28;20026;-80
2024/01/06 07:57:25;;;;;;;5.03;2.88;;;4.80;97.30;;;;;;5012165;28;20038;-79
2024/01/06 07:59:51;;;;;;;4.28;2.75;;;4.90;97.30;;;;;;5007938;28;20022;-78
2024/01/06 08:02:17;;;;;;;4.93;2.90;;;4.90;97.20;;;;;;4999405;28;20397;-82
2024/01/06 08:04:42;;;;;;;4.63;2.63;;;4.90;97.30;;;;;;5011631;28;20040;-80
2024/01/06 08:07:08;;;;;;;5.10;2.97;;;4.90;97.40;;;;;;5009511;28;20037;-80
2024/01/06 08:09:33;;;;;;;4.82;2.92;;;4.90;97.10;;;;;;5011780;28;20063;-81
2024/01/06 08:11:59;;;;;;;4.93;2.90;;;4.90;97.10;;;;;;5010945;28;20505;-80
2024/01/06 08:14:24;;;;;;;5.47;3.25;;;4.90;97.10;;;;;;5013548;28;20603;-80
2024/01/06 08:16:50;;;;;;;5.15;2.85;;;4.80;97.00;;;;;;5010169;28;20014;-80
2024/01/06 08:19:16;;;;;;;6.25;3.42;;;4.90;97.10;;;;;;5010279;28;20648;-80
2024/01/06 08:21:41;;;;;;;6.35;3.40;;;4.80;97.00;;;;;;5011023;28;20022;-79
2024/01/06 08:24:07;;;;;;;7.32;3.97;;;4.70;97.00;;;;;;5010373;28;20105;-81
2024/01/06 08:26:33;;;;;;;6.50;3.45;;;4.70;97.00;;;;;;5010997;28;20045;-81
2024/01/06 08:28:59;;;;;;;5.45;3.30;;;4.70;97.10;;;;;;5011789;28;20041;-80
2024/01/06 08:31:24;;;;;;;5.93;3.35;;;4.70;97.10;;;;;;5010477;28;20053;-80
2024/01/06 08:33:50;;;;;;;4.30;2.83;;;4.70;97.00;;;;;;5010982;28;20022;-79
2024/01/06 08:36:16;;;;;;;6.45;3.30;;;4.70;97.20;;;;;;5009981;28;20040;-81
2024/01/06 08:38:41;;;;;;;6.57;3.35;;;4.70;97.00;;;;;;5011455;28;20109;-81
2024/01/06 08:41:07;;;;;;;6.00;3.10;;;4.70;97.10;;;;;;5007458;28;20037;-80
2024/01/06 08:43:33;;;;;;;6.40;3.65;;;4.70;97.20;;;;;;5010049;28;20037;-81
2024/01/06 08:45:59;;;;;;;6.80;3.95;;;4.70;97.00;;;;;;5010753;28;20052;-81
2024/01/06 08:48:24;;;;;;;9.05;4.85;;;4.60;97.00;;;;;;5005957;28;20030;-80
2024/01/06 08:50:50;;;;;;;6.50;3.50;;;4.60;97.00;;;;;;5006312;28;20109;-80
2024/01/06 08:53:16;;;;;;;6.35;3.47;;;4.60;97.10;;;;;;5007379;28;20080;-81
2024/01/06 08:55:42;;;;;;;8.90;4.10;;;4.60;97.10;;;;;;5008487;28;20030;-80
2024/01/06 08:58:07;;;;;;;7.63;3.53;;;4.60;97.00;;;;;;5000665;28;20038;-81
2024/01/06 09:00:33;;;;;;;5.88;2.80;;;4.60;97.10;;;;;;5010980;28;20108;-80
2024/01/06 09:02:59;;;;;;;7.72;3.58;;;4.70;97.10;;;;;;5008026;28;20049;-81
2024/01/06 09:05:25;;;;;;;6.43;3.20;;;4.60;97.00;;;;;;5012066;28;20034;-81
2024/01/06 09:07:50;;;;;;;5.22;3.10;;;4.60;97.00;;;;;;5007921;28;20028;-80
2024/01/06 09:10:17;;;;;;;5.95;3.00;;;4.60;97.00;;;;;;5004648;28;20160;-80
2024/01/06 09:12:43;;;;;;;5.57;2.95;;;4.70;97.00;;;;;;5007579;28;20491;-78
2024/01/06 09:15:09;;;;;;;5.13;3.15;;;4.70;96.90;;;;;;4999973;28;20057;-78
2024/01/06 09:17:34;;;;;;;5.80;3.10;;;4.80;96.80;;;;;;5006604;28;20077;-80
2024/01/06 09:20:01;;;;;;;6.55;3.80;;;4.70;96.70;;;;;;5004849;28;20044;-82
2024/01/06 09:22:26;;;;;;;7.07;3.45;;;4.70;96.80;;;;;;5005902;28;20034;-82
2024/01/06 09:24:52;;;;;;;5.68;3.30;;;4.80;96.90;;;;;;5008687;28;20030;-80
2024/01/06 09:27:18;;;;;;;6.53;3.28;;;4.80;96.90;;;;;;5008552;28;20026;-82
2024/01/06 09:29:44;;;;;;;4.97;2.95;;;4.80;96.90;;;;;;5003569;28;20109;-80
2024/01/06 09:32:09;;;;;;;7.97;3.50;;;4.80;96.80;;;;;;5008155;28;20083;-80
2024/01/06 09:34:35;;;;;;;7.65;4.00;;;4.80;96.60;;;;;;5006943;28;20374;-83
2024/01/06 09:37:00;;;;;;;7.50;3.88;;;4.70;96.60;;;;;;5006766;28;20025;-81
2024/01/06 09:39:26;;;;;;;8.05;4.20;;;4.60;96.70;;;;;;5007059;28;20604;-82
2024/01/06 09:41:52;;;;;;;8.50;4.63;;;4.60;96.80;;;;;;5009304;28;20053;-80
2024/01/06 09:44:18;;;;;;;6.28;3.40;;;4.60;96.80;;;;;;5003556;28;20472;-82
2024/01/06 09:46:44;;;;;;;8.88;4.63;;;4.60;96.80;;;;;;5005580;28;20033;-82
2024/01/06 09:49:10;;;;;;;6.22;3.28;;;4.60;96.90;;;;;;5006394;28;20029;-82
2024/01/06 09:51:39;;;;;;;7.43;3.95;;;4.60;96.90;;;;;;5008886;28;20034;-80
2024/01/06 09:54:09;;;;;;;7.55;4.10;;;4.70;96.90;;;;;;5007418;28;20032;-80
2024/01/06 09:56:34;;;;;;;6.38;3.92;;;4.70;96.80;;;;;;5024648;28;20105;-82
2024/01/06 09:59:00;;;;;;;7.90;4.07;;;4.60;96.60;;;;;;5007436;28;20676;-81
2024/01/06 10:01:26;;;;;;;7.32;4.60;;;4.60;96.60;;;;;;5003609;28;20030;-81
2024/01/06 10:03:51;;;;;;;5.45;3.20;;;4.70;96.80;;;;;;5009514;28;20056;-82
2024/01/06 10:06:18;;;;;;;6.82;4.03;;;4.70;96.80;;;;;;5008655;28;20034;-81
2024/01/06 10:08:51;;;;;;;9.27;5.00;;;4.80;96.70;;;;;;5009991;28;20040;-82
2024/01/06 10:11:16;;;;;;;8.82;4.38;;;4.70;96.60;;;;;;5007220;28;20048;-82
2024/01/06 10:13:42;;;;;;;8.27;4.80;;;4.70;96.50;;;;;;5008400;28;20069;-82
2024/01/06 10:16:08;;;;;;;7.38;4.50;;;4.70;96.40;;;;;;5009216;28;20104;-80
2024/01/06 10:18:35;;;;;;;7.70;4.65;;;4.60;96.40;;;;;;5009696;28;20100;-81
2024/01/06 10:21:05;;;;;;;7.00;3.83;;;4.50;96.50;;;;;;5001917;28;20045;-81
2024/01/06 10:23:32;;;;;;;6.47;3.75;;;4.80;96.70;;;;;;5007276;28;20062;-82
2024/01/06 10:25:57;;;;;;;6.80;4.18;;;4.60;96.60;;;;;;5007280;28;20049;-81
2024/01/06 10:28:23;;;;;;;8.40;4.68;;;4.60;96.60;;;;;;5007618;28;20709;-80
2024/01/06 10:30:52;;;;;;;7.60;4.10;;;4.60;96.60;;;;;;5009275;28;20033;-80
2024/01/06 10:33:19;;;;;;;6.15;3.33;;;4.60;96.60;;;;;;5004478;28;20738;-80
2024/01/06 10:35:44;;;;;;;5.93;3.53;;;4.70;96.60;;;;;;5007296;28;20029;-83
2024/01/06 10:38:11;;;;;;;6.57;4.00;;;4.70;96.50;;;;;;5006509;28;20022;-85
2024/01/06 10:40:37;;;;;;;6.65;4.15;;;4.70;96.50;;;;;;5006752;28;20057;-80
2024/01/06 10:43:03;;;;;;;8.45;4.18;;;4.80;96.40;;;;;;5006463;28;20045;-79
2024/01/06 10:45:29;;;;;;;7.10;3.95;;;4.80;96.30;;;;;;5004396;28;20066;-81
2024/01/06 10:47:56;;;;;;;5.05;2.88;;;4.60;96.30;;;;;;5001440;28;20022;-83
2024/01/06 10:50:23;;;;;;;6.00;3.72;;;4.70;96.40;;;;;;5002417;28;20037;-82
2024/01/06 10:52:48;;;;;;;6.03;3.47;;;4.60;96.30;;;;;;5007960;28;20018;-84
2024/01/06 10:55:20;;;;;;;8.70;4.78;;;4.60;96.40;;;;;;5008154;28;20052;-82
2024/01/06 10:57:46;;;;;;;8.02;4.32;;;4.60;96.30;;;;;;5010066;28;20029;-83
2024/01/06 11:00:12;;;;;;;5.95;4.00;;;4.50;96.30;;;;;;5009805;28;20026;-82
2024/01/06 11:02:39;;;;;;;6.43;3.45;;;4.60;96.40;;;;;;5009081;28;20076;-82
2024/01/06 11:05:07;;;;;;;6.93;4.18;;;4.60;96.40;;;;;;5008240;28;20382;-81
2024/01/06 11:07:34;;;;;;;8.50;4.82;;;4.60;96.30;;;;;;5002718;28;20529;-81
2024/01/06 11:10:11;;;;;;;9.10;4.65;;;4.60;96.20;;;;;;5007148;28;20045;-82
2024/01/06 11:12:37;;;;;;;8.25;4.07;;;4.50;96.20;;;;;;5006301;28;20121;-83
2024/01/06 11:15:04;;;;;;;7.85;4.68;;;4.50;96.20;;;;;;5010927;28;20111;-80
2024/01/06 11:17:49;;;;;;;9.15;4.70;;;4.40;96.20;;;;;;5010475;28;20053;-83
2024/01/06 11:20:15;;;;;;;6.72;3.88;;;4.50;96.40;;;;;;5008399;28;20030;-82
2024/01/06 11:22:41;;;;;;;5.55;3.45;;;4.50;96.40;;;;;;5007142;28;20045;-83
2024/01/06 11:25:12;;;;;;;7.25;4.18;;;4.50;96.30;;;;;;5005649;28;20501;-81
2024/01/06 11:27:38;;;;;;;8.77;4.70;;;4.50;96.30;;;;;;5003813;28;20062;-83
2024/01/06 11:30:05;;;;;;;9.38;5.15;;;4.50;96.10;;;;;;5006733;28;20062;-81
2024/01/06 11:32:35;;;;;;;8.45;4.40;;;4.50;96.20;;;;;;5006156;28;20030;-83
2024/01/06 11:35:12;;;;;;;7.70;4.32;;;4.40;96.20;;;;;;5009260;28;20396;-83
2024/01/06 11:37:40;;;;;;;7.55;4.50;;;4.40;96.30;;;;;;5006529;28;20091;-83
2024/01/06 11:40:17;;;;;;;8.75;4.90;;;4.40;96.20;;;;;;5007980;28;20025;-83
2024/01/06 11:42:44;;;;;;;8.15;4.43;;;4.40;96.20;;;;;;5004761;28;20042;-82
2024/01/06 11:45:09;;;;;;;7.47;4.70;;;4.40;96.30;;;;;;5001070;28;20053;-81
2024/01/06 11:47:35;;;;;;;7.65;4.63;;;4.30;96.20;;;;;;5005018;28;20493;-83
2024/01/06 11:50:05;;;;;;;7.25;4.32;;;4.40;96.30;;;;;;5002981;28;20030;-82
2024/01/06 11:52:34;;;;;;;7.80;4.80;;;4.40;96.30;;;;;;5005273;28;20029;-83
2024/01/06 11:55:00;;;;;;;14.95;7.60;;;4.30;96.20;;;;;;5007908;28;20022;-83
2024/01/06 11:57:27;;;;;;;14.63;7.13;;;4.30;96.10;;;;;;5003103;28;20018;-80
2024/01/06 11:59:53;;;;;;;12.30;6.43;;;4.30;96.20;;;;;;5004578;28;20176;-83
2024/01/06 12:02:19;;;;;;;12.45;6.57;;;4.30;96.30;;;;;;5005151;28;20056;-80
2024/01/06 12:04:52;;;;;;;11.30;6.10;;;4.30;96.20;;;;;;5001774;28;20030;-81
2024/01/06 12:07:19;;;;;;;9.05;5.20;;;4.30;96.20;;;;;;5003941;28;20030;-81
2024/01/06 12:09:46;;;;;;;7.25;4.40;;;4.20;96.20;;;;;;5007107;28;20435;-83
2024/01/06 12:12:15;;;;;;;7.38;4.25;;;4.20;96.30;;;;;;5004312;28;20029;-80
2024/01/06 12:14:45;;;;;;;8.82;5.20;;;4.20;96.20;;;;;;5005834;28;20037;-80
2024/01/06 12:17:13;;;;;;;8.00;5.07;;;4.10;96.10;;;;;;5005697;28;20054;-80
2024/01/06 12:19:41;;;;;;;9.15;5.68;;;4.20;96.30;;;;;;5003097;28;20456;-82
2024/01/06 12:22:09;;;;;;;8.63;5.20;;;4.10;96.40;;;;;;5005368;28;20034;-80
2024/01/06 12:24:36;;;;;;;8.80;5.18;;;4.20;96.30;;;;;;5007589;28;20128;-79
2024/01/06 12:27:01;;;;;;;8.30;5.03;;;4.10;96.20;;;;;;5008240;28;20026;-80
2024/01/06 12:29:31;;;;;;;7.75;4.50;;;4.10;96.20;;;;;;5007789;28;20056;-80
2024/01/06 12:31:59;;;;;;;6.75;3.70;;;4.10;96.30;;;;;;5003104;28;20393;-82
2024/01/06 12:34:25;;;;;;;9.10;5.00;;;4.20;96.30;;;;;;5003533;28;20265;-80
2024/01/06 12:36:53;;;;;;;8.13;5.18;;;4.20;96.20;;;;;;5007807;28;20044;-80
2024/01/06 12:39:19;;;;;;;10.77;4.70;;;4.20;96.20;;;;;;5003976;28;20108;-81
2024/01/06 12:41:45;;;;;;;18.63;8.18;;;4.20;96.40;;;;;;5005514;28;20026;-79
2024/01/06 12:44:10;;;;;;;16.67;7.53;;;4.20;96.10;;;;;;5007146;28;20440;-81
2024/01/06 12:46:36;;;;;;;14.93;6.63;;;4.30;96.10;;;;;;5006295;28;20068;-81
2024/01/06 12:49:02;;;;;;;11.00;5.45;;;4.30;96.10;;;;;;5009405;28;20022;-81
2024/01/06 12:51:28;;;;;;;9.32;5.22;;;4.20;96.00;;;;;;5006581;28;20026;-81